createdAt,value
2022-07-27T00:00:20.338Z,93280.72
2022-07-27T00:01:18.028Z,93307.56
2022-07-27T00:02:14.726Z,93300.41
2022-07-27T00:03:11.417Z,93305.59
2022-07-27T00:04:08.196Z,93308.72
2022-07-27T00:05:05.430Z,93279.63
2022-07-27T00:06:02.081Z,93310.38
2022-07-27T00:06:58.739Z,93301.53
2022-07-27T00:07:55.415Z,93311.13
2022-07-27T00:08:52.035Z,93254.50
2022-07-27T00:09:48.636Z,93308.28
2022-07-27T00:10:45.299Z,93316.09
2022-07-27T00:11:41.905Z,93314.44
2022-07-27T00:12:38.604Z,93313.97
2022-07-27T00:13:35.361Z,93311.38
2022-07-27T00:14:32.145Z,93308.38
2022-07-27T00:15:28.949Z,93312.53
2022-07-27T00:16:25.705Z,93317.97
2022-07-27T00:17:23.994Z,93312.19
2022-07-27T00:18:20.654Z,93313.75
2022-07-27T00:19:17.290Z,93312.56
2022-07-27T00:20:14.169Z,93313.97
2022-07-27T00:21:10.918Z,93307.78
2022-07-27T00:22:07.578Z,93297.06
2022-07-27T00:23:04.267Z,93298.97
2022-07-27T00:24:00.875Z,93307.56
2022-07-27T00:24:57.512Z,93312.69
2022-07-27T00:25:54.286Z,93313.31
2022-07-27T00:26:51.368Z,93310.94
2022-07-27T00:27:48.132Z,93316.63
2022-07-27T00:28:44.747Z,93313.16
2022-07-27T00:29:41.876Z,93315.66
2022-07-27T00:30:38.619Z,93313.56
2022-07-27T00:31:35.453Z,93314.88
2022-07-27T00:32:32.140Z,93315.81
2022-07-27T00:33:29.485Z,93316.03
2022-07-27T00:34:26.424Z,93294.50
2022-07-27T00:35:23.412Z,93296.16
2022-07-27T00:36:20.050Z,93298.53
2022-07-27T00:37:16.688Z,93324.41
2022-07-27T00:38:13.380Z,93329.34
2022-07-27T00:39:10.254Z,93330.63
2022-07-27T00:40:08.503Z,93327.81
2022-07-27T00:41:05.982Z,93330.56
2022-07-27T00:42:02.569Z,93327.59
2022-07-27T00:42:59.225Z,93334.09
2022-07-27T00:43:57.849Z,93330.31
2022-07-27T00:44:55.486Z,93333.28
2022-07-27T00:45:52.269Z,93327.75
2022-07-27T00:46:48.971Z,93329.56
2022-07-27T00:47:45.685Z,93334.34
2022-07-27T00:48:42.374Z,93324.53
2022-07-27T00:49:39.004Z,93331.88
2022-07-27T00:50:36.205Z,93327.84
2022-07-27T00:51:33.092Z,93330.94
2022-07-27T00:52:30.854Z,93335.75
2022-07-27T00:53:27.838Z,93315.06
2022-07-27T00:54:25.174Z,93314.38
2022-07-27T00:55:22.039Z,93321.09
2022-07-27T00:56:18.834Z,93338.97
2022-07-27T00:57:16.596Z,93318.41
2022-07-27T00:58:13.561Z,93336.50
2022-07-27T00:59:12.262Z,93338.50
2022-07-27T01:00:09.967Z,93325.81
2022-07-27T01:01:06.902Z,93322.16
2022-07-27T01:02:05.054Z,93300.06
2022-07-27T01:03:09.224Z,93339.91
2022-07-27T01:04:06.720Z,93330.13
2022-07-27T01:05:05.138Z,93344.16
2022-07-27T01:06:03.607Z,93327.13
2022-07-27T01:07:05.296Z,93335.53
2022-07-27T01:08:02.441Z,93337.19
2022-07-27T01:09:18.145Z,93335.44
2022-07-27T01:10:14.884Z,93336.97
2022-07-27T01:11:11.957Z,93332.44
2022-07-27T01:12:13.894Z,93329.22
2022-07-27T01:13:13.139Z,93337.34
2022-07-27T01:14:13.341Z,93335.22
2022-07-27T01:15:10.306Z,93334.69
2022-07-27T01:16:07.745Z,93343.66
2022-07-27T01:17:04.502Z,93313.03
2022-07-27T01:18:01.099Z,93341.22
2022-07-27T01:18:57.715Z,93335.56
2022-07-27T01:19:54.342Z,93338.75
2022-07-27T01:20:50.930Z,93320.53
2022-07-27T01:21:47.552Z,93345.13
2022-07-27T01:22:44.164Z,93341.44
2022-07-27T01:23:40.778Z,93336.72
2022-07-27T01:24:38.277Z,93344.06
2022-07-27T01:25:34.996Z,93343.34
2022-07-27T01:26:35.105Z,93325.94
2022-07-27T01:27:31.723Z,93344.19
2022-07-27T01:28:28.749Z,93334.09
2022-07-27T01:29:25.368Z,93342.25
2022-07-27T01:30:29.593Z,93343.06
2022-07-27T01:31:27.073Z,93332.28
2022-07-27T01:32:23.792Z,93349.28
2022-07-27T01:33:26.056Z,93345.25
2022-07-27T01:34:22.933Z,93348.06
2022-07-27T01:35:19.582Z,93346.06
2022-07-27T01:36:17.419Z,93328.75
2022-07-27T01:37:14.052Z,93343.50
2022-07-27T01:38:12.287Z,93342.44
2022-07-27T01:39:09.284Z,93337.69
2022-07-27T01:40:06.455Z,93341.56
2022-07-27T01:41:03.240Z,93344.81
2022-07-27T01:42:00.713Z,93345.59
2022-07-27T01:42:57.394Z,93338.25
2022-07-27T01:43:54.042Z,93340.78
2022-07-27T01:44:50.823Z,93340.16
2022-07-27T01:45:48.282Z,93342.06
2022-07-27T01:46:45.461Z,93346.88
2022-07-27T01:47:42.114Z,93348.16
2022-07-27T01:48:38.790Z,93339.34
2022-07-27T01:49:35.472Z,93349.84
2022-07-27T01:50:32.190Z,93342.28
2022-07-27T01:51:28.828Z,93344.91
2022-07-27T01:52:25.451Z,93355.75
2022-07-27T01:53:23.230Z,93345.50
2022-07-27T01:54:19.906Z,93335.81
2022-07-27T01:55:16.513Z,93340.00
2022-07-27T01:56:13.849Z,93345.06
2022-07-27T01:57:10.795Z,93338.22
2022-07-27T01:58:09.381Z,93339.03
2022-07-27T01:59:06.234Z,93331.88
2022-07-27T02:00:10.427Z,93341.75
2022-07-27T02:01:07.971Z,93340.94
2022-07-27T02:02:04.775Z,93332.63
2022-07-27T02:03:02.503Z,93346.38
2022-07-27T02:03:59.143Z,93347.88
2022-07-27T02:04:55.830Z,93353.75
2022-07-27T02:05:52.446Z,93343.78
2022-07-27T02:06:49.075Z,93355.34
2022-07-27T02:07:45.787Z,93353.19
2022-07-27T02:08:42.501Z,93353.31
2022-07-27T02:09:39.161Z,93350.47
2022-07-27T02:10:37.262Z,93357.41
2022-07-27T02:11:52.210Z,93353.25
2022-07-27T02:12:49.104Z,93360.28
2022-07-27T02:13:47.468Z,93356.41
2022-07-27T02:14:44.173Z,93362.59
2022-07-27T02:15:44.596Z,93359.22
2022-07-27T02:16:41.451Z,93359.34
2022-07-27T02:17:40.243Z,93365.91
2022-07-27T02:18:38.495Z,93358.53
2022-07-27T02:19:35.523Z,93363.28
2022-07-27T02:20:32.223Z,93361.72
2022-07-27T02:21:28.853Z,93366.16
2022-07-27T02:22:25.499Z,93361.47
2022-07-27T02:23:22.512Z,93356.28
2022-07-27T02:24:19.178Z,93345.91
2022-07-27T02:25:17.894Z,93358.09
2022-07-27T02:26:14.976Z,93361.00
2022-07-27T02:27:11.632Z,93359.13
2022-07-27T02:28:09.053Z,93371.31
2022-07-27T02:29:05.641Z,93364.09
2022-07-27T02:30:02.731Z,93349.78
2022-07-27T02:30:59.874Z,93361.66
2022-07-27T02:31:57.030Z,93365.81
2022-07-27T02:32:53.769Z,93357.50
2022-07-27T02:33:50.770Z,93364.78
2022-07-27T02:34:47.865Z,93364.25
2022-07-27T02:35:44.676Z,93364.69
2022-07-27T02:36:41.321Z,93359.03
2022-07-27T02:37:38.057Z,93366.81
2022-07-27T02:38:34.713Z,93360.34
2022-07-27T02:39:31.363Z,93360.53
2022-07-27T02:40:28.104Z,93375.16
2022-07-27T02:41:25.190Z,93358.66
2022-07-27T02:42:22.092Z,93362.19
2022-07-27T02:43:18.718Z,93361.38
2022-07-27T02:44:17.403Z,93368.84
2022-07-27T02:45:17.191Z,93364.38
2022-07-27T02:46:13.877Z,93366.28
2022-07-27T02:47:10.763Z,93366.44
2022-07-27T02:48:08.385Z,93366.97
2022-07-27T02:49:05.680Z,93374.13
2022-07-27T02:50:03.124Z,93373.09
2022-07-27T02:51:01.635Z,93366.97
2022-07-27T02:51:58.340Z,93367.38
2022-07-27T02:52:54.948Z,93371.31
2022-07-27T02:53:51.536Z,93372.16
2022-07-27T02:54:48.236Z,93370.53
2022-07-27T02:55:44.942Z,93372.50
2022-07-27T02:56:41.531Z,93373.09
2022-07-27T02:57:41.113Z,93374.34
2022-07-27T02:58:38.049Z,93372.94
2022-07-27T02:59:34.724Z,93378.78
2022-07-27T03:00:31.515Z,93373.25
2022-07-27T03:01:28.261Z,93379.63
2022-07-27T03:02:25.157Z,93373.50
2022-07-27T03:03:21.897Z,93383.59
2022-07-27T03:04:19.381Z,93380.22
2022-07-27T03:05:16.418Z,93383.75
2022-07-27T03:06:13.979Z,93383.50
2022-07-27T03:07:10.677Z,93384.91
2022-07-27T03:08:07.311Z,93386.69
2022-07-27T03:09:04.811Z,93385.13
2022-07-27T03:10:01.488Z,93391.81
2022-07-27T03:10:58.145Z,93385.47
2022-07-27T03:11:54.799Z,93392.66
2022-07-27T03:12:51.435Z,93396.88
2022-07-27T03:13:48.177Z,93389.22
2022-07-27T03:14:44.826Z,93391.25
2022-07-27T03:15:41.574Z,93395.66
2022-07-27T03:16:38.316Z,93395.81
2022-07-27T03:17:34.949Z,93399.69
2022-07-27T03:18:31.604Z,93400.13
2022-07-27T03:19:30.451Z,93358.75
2022-07-27T03:20:27.317Z,93393.28
2022-07-27T03:21:24.634Z,93388.84
2022-07-27T03:22:21.291Z,93394.88
2022-07-27T03:23:18.433Z,93390.09
2022-07-27T03:24:15.052Z,93395.03
2022-07-27T03:25:11.731Z,93394.50
2022-07-27T03:26:08.497Z,93399.22
2022-07-27T03:27:05.110Z,93406.63
2022-07-27T03:28:04.202Z,93379.25
2022-07-27T03:29:01.213Z,93399.91
2022-07-27T03:29:57.805Z,93397.72
2022-07-27T03:30:54.550Z,93380.72
2022-07-27T03:31:51.169Z,93387.88
2022-07-27T03:32:48.457Z,93392.44
2022-07-27T03:33:45.434Z,93394.25
2022-07-27T03:34:42.190Z,93393.47
2022-07-27T03:35:38.819Z,93395.03
2022-07-27T03:36:36.325Z,93390.59
2022-07-27T03:37:33.897Z,93401.41
2022-07-27T03:38:30.589Z,93389.72
2022-07-27T03:39:27.233Z,93386.78
2022-07-27T03:40:23.887Z,93387.31
2022-07-27T03:41:20.503Z,93366.97
2022-07-27T03:42:17.211Z,93388.91
2022-07-27T03:43:13.867Z,93395.22
2022-07-27T03:44:10.773Z,93394.03
2022-07-27T03:45:08.693Z,93391.06
2022-07-27T03:46:05.717Z,93358.81
2022-07-27T03:47:02.347Z,93390.31
2022-07-27T03:47:59.047Z,93389.88
2022-07-27T03:48:57.192Z,93396.00
2022-07-27T03:49:53.943Z,93397.28
2022-07-27T03:50:50.733Z,93395.00
2022-07-27T03:51:47.390Z,93398.31
2022-07-27T03:52:45.479Z,93404.09
2022-07-27T03:53:42.459Z,93398.75
2022-07-27T03:54:39.151Z,93388.91
2022-07-27T03:55:35.753Z,93399.09
2022-07-27T03:56:33.257Z,93400.75
2022-07-27T03:57:29.930Z,93407.28
2022-07-27T03:58:26.680Z,93404.19
2022-07-27T03:59:23.429Z,93408.09
2022-07-27T04:00:20.821Z,93405.31
2022-07-27T04:01:17.513Z,93406.31
2022-07-27T04:02:14.348Z,93405.81
2022-07-27T04:03:11.178Z,93403.66
2022-07-27T04:04:07.840Z,93408.78
2022-07-27T04:05:04.933Z,93374.41
2022-07-27T04:06:01.583Z,93405.88
2022-07-27T04:06:58.749Z,93391.25
2022-07-27T04:07:55.365Z,93418.81
2022-07-27T04:08:54.993Z,93389.22
2022-07-27T04:09:56.173Z,93406.53
2022-07-27T04:10:52.808Z,93411.28
2022-07-27T04:11:51.049Z,93416.84
2022-07-27T04:12:48.279Z,93414.69
2022-07-27T04:13:46.702Z,93411.38
2022-07-27T04:14:44.093Z,93411.09
2022-07-27T04:15:40.743Z,93415.56
2022-07-27T04:16:37.455Z,93413.63
2022-07-27T04:17:55.025Z,93408.63
2022-07-27T04:18:50.940Z,93410.72
2022-07-27T04:19:47.675Z,93408.84
2022-07-27T04:20:44.341Z,93407.31
2022-07-27T04:21:41.065Z,93414.00
2022-07-27T04:22:37.838Z,93411.94
2022-07-27T04:23:38.149Z,93410.88
2022-07-27T04:24:35.262Z,93377.63
2022-07-27T04:25:31.966Z,93410.31
2022-07-27T04:26:28.840Z,93380.06
2022-07-27T04:27:25.473Z,93406.75
2022-07-27T04:28:22.147Z,93410.44
2022-07-27T04:29:20.756Z,93380.16
2022-07-27T04:30:17.899Z,93408.19
2022-07-27T04:31:14.712Z,93405.72
2022-07-27T04:32:11.433Z,93410.44
2022-07-27T04:33:08.064Z,93411.41
2022-07-27T04:34:04.731Z,93410.59
2022-07-27T04:35:01.499Z,93408.44
2022-07-27T04:35:58.108Z,93410.09
2022-07-27T04:36:54.803Z,93411.00
2022-07-27T04:37:58.821Z,93417.19
2022-07-27T04:38:56.344Z,93392.88
2022-07-27T04:39:57.679Z,93414.03
2022-07-27T04:40:58.223Z,93419.56
2022-07-27T04:41:55.164Z,93414.34
2022-07-27T04:42:51.800Z,93417.75
2022-07-27T04:43:48.448Z,93419.66
2022-07-27T04:44:45.080Z,93412.09
2022-07-27T04:45:41.777Z,93426.94
2022-07-27T04:46:38.607Z,93428.84
2022-07-27T04:47:35.311Z,93434.38
2022-07-27T04:48:33.579Z,93431.13
2022-07-27T04:49:30.270Z,93399.91
2022-07-27T04:50:26.990Z,93434.63
2022-07-27T04:51:23.706Z,93438.00
2022-07-27T04:52:26.599Z,93435.59
2022-07-27T04:53:24.023Z,93440.16
2022-07-27T04:54:20.672Z,93435.44
2022-07-27T04:55:17.310Z,93437.41
2022-07-27T04:56:14.005Z,93437.19
2022-07-27T04:57:10.818Z,93416.72
2022-07-27T04:58:07.576Z,93439.94
2022-07-27T04:59:04.361Z,93445.59
2022-07-27T05:00:01.090Z,93415.09
2022-07-27T05:00:57.867Z,93446.63
2022-07-27T05:01:55.526Z,93450.34
2022-07-27T05:02:52.451Z,93443.22
2022-07-27T05:03:49.087Z,93449.28
2022-07-27T05:04:46.067Z,93443.47
2022-07-27T05:05:49.716Z,93446.53
2022-07-27T05:06:46.855Z,93454.31
2022-07-27T05:07:43.467Z,93445.81
2022-07-27T05:08:40.105Z,93444.75
2022-07-27T05:09:36.713Z,93452.31
2022-07-27T05:10:33.497Z,93455.19
2022-07-27T05:11:30.187Z,93460.19
2022-07-27T05:12:26.942Z,93456.53
2022-07-27T05:13:23.568Z,93459.44
2022-07-27T05:14:21.280Z,93436.34
2022-07-27T05:15:18.785Z,93456.13
2022-07-27T05:16:15.546Z,93432.03
2022-07-27T05:17:12.193Z,93450.25
2022-07-27T05:18:08.894Z,93453.63
2022-07-27T05:19:05.539Z,93453.81
2022-07-27T05:20:02.514Z,93450.09
2022-07-27T05:20:59.169Z,93429.31
2022-07-27T05:21:55.813Z,93462.59
2022-07-27T05:22:52.699Z,93443.47
2022-07-27T05:23:49.307Z,93456.16
2022-07-27T05:24:45.938Z,93453.84
2022-07-27T05:25:42.559Z,93455.91
2022-07-27T05:26:39.272Z,93449.28
2022-07-27T05:27:37.520Z,93460.47
2022-07-27T05:28:51.539Z,93456.63
2022-07-27T05:29:48.145Z,93460.56
2022-07-27T05:30:45.011Z,93450.91
2022-07-27T05:31:41.676Z,93457.50
2022-07-27T05:32:38.319Z,93459.56
2022-07-27T05:33:35.331Z,93461.72
2022-07-27T05:34:32.096Z,93462.47
2022-07-27T05:35:28.851Z,93461.84
2022-07-27T05:36:26.010Z,93427.59
2022-07-27T05:37:22.639Z,93475.22
2022-07-27T05:38:19.242Z,93463.63
2022-07-27T05:39:16.137Z,93464.03
2022-07-27T05:40:13.748Z,93464.97
2022-07-27T05:41:10.411Z,93439.97
2022-07-27T05:42:07.127Z,93464.41
2022-07-27T05:43:04.048Z,93462.38
2022-07-27T05:44:00.745Z,93459.38
2022-07-27T05:44:57.381Z,93464.19
2022-07-27T05:45:54.623Z,93465.91
2022-07-27T05:46:51.319Z,93466.84
2022-07-27T05:47:47.947Z,93457.47
2022-07-27T05:48:44.728Z,93463.25
2022-07-27T05:49:41.556Z,93468.00
2022-07-27T05:50:38.256Z,93460.56
2022-07-27T05:51:35.191Z,93464.16
2022-07-27T05:52:31.776Z,93465.78
2022-07-27T05:53:28.577Z,93465.31
2022-07-27T05:54:25.334Z,93466.84
2022-07-27T05:55:21.956Z,93472.53
2022-07-27T05:56:18.588Z,93472.47
2022-07-27T05:57:15.665Z,93467.25
2022-07-27T05:58:12.397Z,93436.69
2022-07-27T05:59:09.141Z,93458.13
2022-07-27T06:00:07.577Z,93466.38
2022-07-27T06:01:04.269Z,93462.22
2022-07-27T06:02:00.921Z,93466.41
2022-07-27T06:02:57.544Z,93466.41
2022-07-27T06:03:54.229Z,93469.50
2022-07-27T06:04:50.893Z,93470.91
2022-07-27T06:05:47.634Z,93474.44
2022-07-27T06:07:03.121Z,93469.84
2022-07-27T06:07:59.826Z,93473.66
2022-07-27T06:08:56.619Z,93472.88
2022-07-27T06:09:53.244Z,93461.69
2022-07-27T06:10:49.875Z,93468.53
2022-07-27T06:11:46.477Z,93469.25
2022-07-27T06:12:44.742Z,93456.50
2022-07-27T06:13:42.191Z,93474.53
2022-07-27T06:14:39.425Z,93453.72
2022-07-27T06:15:36.949Z,93474.41
2022-07-27T06:16:34.223Z,93438.59
2022-07-27T06:17:30.963Z,93465.84
2022-07-27T06:18:27.605Z,93471.97
2022-07-27T06:19:24.489Z,93476.81
2022-07-27T06:20:32.939Z,93472.38
2022-07-27T06:21:29.610Z,93469.59
2022-07-27T06:22:26.261Z,93467.66
2022-07-27T06:23:22.882Z,93467.88
2022-07-27T06:24:19.575Z,93481.84
2022-07-27T06:25:17.158Z,93457.13
2022-07-27T06:26:14.131Z,93469.72
2022-07-27T06:27:10.763Z,93470.47
2022-07-27T06:28:07.416Z,93461.41
2022-07-27T06:29:09.972Z,93449.34
2022-07-27T06:30:08.750Z,93466.56
2022-07-27T06:31:06.787Z,93477.38
2022-07-27T06:32:06.752Z,93475.81
2022-07-27T06:33:06.057Z,93485.19
2022-07-27T06:34:08.171Z,93475.69
2022-07-27T06:35:09.423Z,93470.56
2022-07-27T06:36:08.361Z,93474.59
2022-07-27T06:37:05.045Z,93462.16
2022-07-27T06:38:02.860Z,93476.34
2022-07-27T06:38:59.499Z,93475.03
2022-07-27T06:39:56.893Z,93477.47
2022-07-27T06:40:54.430Z,93480.31
2022-07-27T06:41:54.878Z,93478.16
2022-07-27T06:42:54.664Z,93477.22
2022-07-27T06:43:51.341Z,93480.66
2022-07-27T06:44:48.027Z,93475.19
2022-07-27T06:45:44.697Z,93480.88
2022-07-27T06:46:41.401Z,93475.19
2022-07-27T06:47:48.907Z,93470.91
2022-07-27T06:48:46.671Z,93478.88
2022-07-27T06:49:43.364Z,93479.44
2022-07-27T06:50:40.187Z,93475.50
2022-07-27T06:51:38.023Z,93447.81
2022-07-27T06:52:35.320Z,93467.75
2022-07-27T06:53:36.167Z,93476.31
2022-07-27T06:54:33.739Z,93476.59
2022-07-27T06:55:30.370Z,93474.94
2022-07-27T06:56:27.052Z,93470.28
2022-07-27T06:57:23.671Z,93473.22
2022-07-27T06:58:20.320Z,93473.53
2022-07-27T06:59:16.998Z,93477.88
2022-07-27T07:00:14.853Z,93442.25
2022-07-27T07:01:11.544Z,93468.94
2022-07-27T07:02:08.694Z,93475.22
2022-07-27T07:03:06.383Z,93471.84
2022-07-27T07:04:03.172Z,93467.63
2022-07-27T07:04:59.950Z,93463.59
2022-07-27T07:05:57.060Z,93467.28
2022-07-27T07:06:53.852Z,93465.16
2022-07-27T07:07:51.090Z,93465.69
2022-07-27T07:08:47.869Z,93462.16
2022-07-27T07:09:44.507Z,93452.22
2022-07-27T07:10:43.624Z,93461.16
2022-07-27T07:11:40.260Z,93458.94
2022-07-27T07:12:36.890Z,93455.56
2022-07-27T07:13:37.770Z,93464.53
2022-07-27T07:14:36.811Z,93457.34
2022-07-27T07:15:34.950Z,93458.94
2022-07-27T07:16:31.685Z,93439.38
2022-07-27T07:17:28.355Z,93460.31
2022-07-27T07:18:24.979Z,93454.16
2022-07-27T07:19:21.692Z,93459.53
2022-07-27T07:20:19.129Z,93460.31
2022-07-27T07:21:16.713Z,93459.56
2022-07-27T07:22:13.533Z,93456.25
2022-07-27T07:23:10.717Z,93463.94
2022-07-27T07:24:07.462Z,93460.09
2022-07-27T07:25:04.313Z,93456.34
2022-07-27T07:26:00.909Z,93457.06
2022-07-27T07:26:57.567Z,93454.91
2022-07-27T07:27:55.176Z,93453.88
2022-07-27T07:28:51.862Z,93446.41
2022-07-27T07:29:48.496Z,93453.19
2022-07-27T07:30:45.115Z,93447.16
2022-07-27T07:31:41.940Z,93455.03
2022-07-27T07:32:38.595Z,93446.91
2022-07-27T07:33:35.267Z,93460.16
2022-07-27T07:34:32.391Z,93458.25
2022-07-27T07:35:29.941Z,93462.03
2022-07-27T07:36:27.012Z,93460.25
2022-07-27T07:37:23.848Z,93464.22
2022-07-27T07:38:30.370Z,93460.84
2022-07-27T07:39:31.280Z,93467.22
2022-07-27T07:40:45.117Z,93453.72
2022-07-27T07:41:42.103Z,93439.03
2022-07-27T07:43:11.455Z,93462.38
2022-07-27T07:44:09.152Z,93461.31
2022-07-27T07:45:06.383Z,93458.56
2022-07-27T07:46:03.298Z,93440.41
2022-07-27T07:47:00.961Z,93459.41
2022-07-27T07:47:58.215Z,93457.72
2022-07-27T07:48:54.866Z,93459.38
2022-07-27T07:49:51.544Z,93461.00
2022-07-27T07:50:52.103Z,93448.38
2022-07-27T07:51:49.785Z,93458.84
2022-07-27T07:52:48.573Z,93455.53
2022-07-27T07:53:45.233Z,93460.47
2022-07-27T07:54:41.870Z,93459.09
2022-07-27T07:55:38.587Z,93461.88
2022-07-27T07:56:35.289Z,93461.56
2022-07-27T07:57:31.946Z,93464.06
2022-07-27T07:58:28.645Z,93462.88
2022-07-27T07:59:25.488Z,93457.72
2022-07-27T08:00:23.099Z,93462.13
2022-07-27T08:01:19.743Z,93457.47
2022-07-27T08:02:16.476Z,93458.81
2022-07-27T08:03:13.431Z,93466.47
2022-07-27T08:04:10.172Z,93468.34
2022-07-27T08:05:07.576Z,93463.16
2022-07-27T08:06:04.541Z,93460.75
2022-07-27T08:07:01.355Z,93456.34
2022-07-27T08:07:58.074Z,93457.91
2022-07-27T08:08:54.869Z,93456.19
2022-07-27T08:09:51.479Z,93457.56
2022-07-27T08:10:48.144Z,93461.16
2022-07-27T08:11:44.977Z,93454.28
2022-07-27T08:12:44.952Z,93438.84
2022-07-27T08:13:41.679Z,93459.25
2022-07-27T08:14:38.263Z,93452.09
2022-07-27T08:15:36.225Z,93441.75
2022-07-27T08:16:33.306Z,93457.41
2022-07-27T08:17:30.142Z,93452.63
2022-07-27T08:18:26.794Z,93443.13
2022-07-27T08:19:23.516Z,93442.50
2022-07-27T08:20:21.344Z,93441.75
2022-07-27T08:21:18.084Z,93450.50
2022-07-27T08:22:14.788Z,93448.81
2022-07-27T08:23:13.212Z,93444.97
2022-07-27T08:24:09.824Z,93441.06
2022-07-27T08:25:07.675Z,93446.34
2022-07-27T08:26:07.770Z,93398.09
2022-07-27T08:27:05.075Z,93443.88
2022-07-27T08:28:02.568Z,93402.88
2022-07-27T08:28:59.596Z,93435.06
2022-07-27T08:30:11.697Z,93443.63
2022-07-27T08:31:14.116Z,93437.22
2022-07-27T08:32:11.524Z,93443.28
2022-07-27T08:33:08.326Z,93437.94
2022-07-27T08:34:04.931Z,93450.25
2022-07-27T08:35:02.117Z,93438.31
2022-07-27T08:35:59.642Z,93445.31
2022-07-27T08:36:56.587Z,93431.72
2022-07-27T08:37:53.679Z,93441.22
2022-07-27T08:38:50.400Z,93437.22
2022-07-27T08:40:37.985Z,93433.09
2022-07-27T08:41:04.228Z,93439.47
2022-07-27T08:42:06.578Z,93424.66
2022-07-27T08:43:05.125Z,93431.31
2022-07-27T08:44:03.328Z,93419.97
2022-07-27T08:45:00.557Z,93435.00
2022-07-27T08:45:59.373Z,93408.22
2022-07-27T08:46:57.169Z,93426.38
2022-07-27T08:47:53.903Z,93409.91
2022-07-27T08:48:51.026Z,93429.56
2022-07-27T08:49:49.688Z,93429.28
2022-07-27T08:50:48.799Z,93427.38
2022-07-27T08:51:47.327Z,93431.88
2022-07-27T08:52:44.823Z,93428.59
2022-07-27T08:53:53.545Z,93432.78
2022-07-27T08:54:50.834Z,93421.28
2022-07-27T08:55:48.210Z,93400.94
2022-07-27T08:56:44.896Z,93419.91
2022-07-27T08:57:41.586Z,93421.50
2022-07-27T08:58:38.211Z,93419.03
2022-07-27T08:59:34.927Z,93421.50
2022-07-27T09:00:32.827Z,93413.78
2022-07-27T09:01:32.989Z,93418.56
2022-07-27T09:02:29.719Z,93420.78
2022-07-27T09:03:26.595Z,93405.75
2022-07-27T09:04:23.417Z,93411.22
2022-07-27T09:05:20.211Z,93411.34
2022-07-27T09:06:53.446Z,93414.91
2022-07-27T09:07:51.164Z,93415.06
2022-07-27T09:08:59.228Z,93413.88
2022-07-27T09:09:55.908Z,93405.81
2022-07-27T09:10:58.060Z,93409.72
2022-07-27T09:12:10.808Z,93413.75
2022-07-27T09:13:26.836Z,93355.53
2022-07-27T09:14:31.100Z,93409.84
2022-07-27T09:15:34.217Z,93408.22
2022-07-27T09:17:02.922Z,93410.88
2022-07-27T09:17:49.649Z,93406.81
2022-07-27T09:18:47.488Z,93389.47
2022-07-27T09:20:18.593Z,93401.00
2022-07-27T09:21:21.798Z,93405.34
2022-07-27T09:22:39.128Z,93394.97
2022-07-27T09:23:36.479Z,93395.09
2022-07-27T09:24:48.466Z,93394.16
2022-07-27T09:26:03.240Z,93400.09
2022-07-27T09:27:03.600Z,93405.56
2022-07-27T09:28:00.880Z,93400.03
2022-07-27T09:29:03.904Z,93397.88
2022-07-27T09:30:11.602Z,93410.31
2022-07-27T09:31:16.289Z,93399.13
2022-07-27T09:32:16.247Z,93392.38
2022-07-27T09:33:15.321Z,93398.59
2022-07-27T09:34:14.127Z,93395.69
2022-07-27T09:35:34.465Z,93385.06
2022-07-27T09:36:31.531Z,93406.97
2022-07-27T09:37:28.762Z,93389.97
2022-07-27T09:38:25.514Z,93402.81
2022-07-27T09:39:25.025Z,93355.75
2022-07-27T09:40:24.266Z,93402.22
2022-07-27T09:41:23.482Z,93398.25
2022-07-27T09:43:05.691Z,93393.25
2022-07-27T09:45:34.361Z,93398.81
2022-07-27T09:46:34.423Z,93394.50
2022-07-27T09:47:31.555Z,93408.25
2022-07-27T09:48:28.175Z,93394.22
2022-07-27T09:49:33.798Z,93400.81
2022-07-27T09:50:35.335Z,93395.53
2022-07-27T09:51:58.893Z,93390.75
2022-07-27T09:52:50.203Z,93394.16
2022-07-27T09:53:47.218Z,93390.19
2022-07-27T09:54:46.705Z,93390.44
2022-07-27T09:55:44.767Z,93389.72
2022-07-27T09:56:41.956Z,93374.47
2022-07-27T09:57:58.518Z,93382.28
2022-07-27T09:59:03.096Z,93400.16
2022-07-27T10:00:13.879Z,93386.56
2022-07-27T10:01:17.464Z,93385.78
2022-07-27T10:02:15.100Z,93380.09
2022-07-27T10:03:12.074Z,93392.66
2022-07-27T10:04:09.103Z,93392.47
2022-07-27T10:05:07.599Z,93390.00
2022-07-27T10:06:04.639Z,93383.94
2022-07-27T10:07:05.267Z,93385.69
2022-07-27T10:08:04.226Z,93347.00
2022-07-27T10:09:01.957Z,93380.91
2022-07-27T10:09:58.932Z,93380.56
2022-07-27T10:10:57.506Z,93379.53
2022-07-27T10:11:54.250Z,93384.59
2022-07-27T10:12:55.150Z,93377.94
2022-07-27T10:13:54.111Z,93371.50
2022-07-27T10:14:50.741Z,93387.44
2022-07-27T10:15:47.550Z,93378.94
2022-07-27T10:16:49.109Z,93379.13
2022-07-27T10:17:46.679Z,93380.44
2022-07-27T10:19:14.019Z,93379.22
2022-07-27T10:20:13.906Z,93369.47
2022-07-27T10:21:11.651Z,93378.84
2022-07-27T10:22:08.336Z,93370.28
2022-07-27T10:23:05.035Z,93375.41
2022-07-27T10:24:10.362Z,93367.78
2022-07-27T10:25:08.707Z,93357.00
2022-07-27T10:26:26.424Z,93370.38
2022-07-27T10:27:28.430Z,93376.03
2022-07-27T10:28:26.749Z,93376.16
2022-07-27T10:29:24.724Z,93375.31
2022-07-27T10:30:24.015Z,93366.88
2022-07-27T10:31:28.787Z,93369.69
2022-07-27T10:32:31.123Z,93376.19
2022-07-27T10:33:48.837Z,93374.44
2022-07-27T10:34:45.573Z,93357.53
2022-07-27T10:35:42.770Z,93369.19
2022-07-27T10:36:51.735Z,93349.56
2022-07-27T10:38:07.327Z,93373.03
2022-07-27T10:39:07.949Z,93362.38
2022-07-27T10:40:26.228Z,93364.13
2022-07-27T10:41:24.230Z,93365.69
2022-07-27T10:42:24.624Z,93363.34
2022-07-27T10:43:22.387Z,93354.75
2022-07-27T10:44:19.056Z,93356.81
2022-07-27T10:45:19.411Z,93352.19
2022-07-27T10:46:22.206Z,93356.88
2022-07-27T10:47:33.391Z,93357.22
2022-07-27T10:48:47.912Z,93356.06
2022-07-27T10:49:45.579Z,93349.78
2022-07-27T10:50:48.307Z,93351.16
2022-07-27T10:51:45.217Z,93347.72
2022-07-27T10:52:42.360Z,93353.03
2022-07-27T10:54:10.426Z,93354.03
2022-07-27T10:55:00.144Z,93351.25
2022-07-27T10:55:57.127Z,93347.09
2022-07-27T10:56:56.241Z,93328.81
2022-07-27T10:57:54.336Z,93339.38
2022-07-27T10:58:51.890Z,93350.06
2022-07-27T11:00:20.204Z,93345.44
2022-07-27T11:01:09.528Z,93339.97
2022-07-27T11:02:13.942Z,93340.59
2022-07-27T11:03:30.864Z,93341.22
2022-07-27T11:04:27.590Z,93334.50
2022-07-27T11:05:58.389Z,93331.66
2022-07-27T11:07:15.074Z,93341.16
2022-07-27T11:10:44.173Z,93333.66
2022-07-27T11:11:41.064Z,93341.47
2022-07-27T11:12:39.299Z,93331.84
2022-07-27T11:13:38.916Z,93335.94
2022-07-27T11:14:50.731Z,93339.81
2022-07-27T11:16:22.983Z,93333.22
2022-07-27T11:17:54.155Z,93331.88
2022-07-27T11:18:44.087Z,93330.34
2022-07-27T11:19:41.315Z,93309.75
2022-07-27T11:20:37.927Z,93328.94
2022-07-27T11:21:39.066Z,93327.50
2022-07-27T11:23:59.157Z,93337.28
2022-07-27T11:24:55.945Z,93327.94
2022-07-27T11:26:00.735Z,93332.84
2022-07-27T11:26:57.402Z,93321.97
2022-07-27T11:27:54.036Z,93318.91
2022-07-27T11:28:52.165Z,93327.16
2022-07-27T11:29:48.830Z,93332.34
2022-07-27T11:30:45.625Z,93319.53
2022-07-27T11:31:55.357Z,93326.59
2022-07-27T11:32:53.903Z,93319.84
2022-07-27T11:34:08.631Z,93320.56
2022-07-27T11:35:24.302Z,93318.94
2022-07-27T11:36:22.187Z,93307.69